Time;durP1;ratioP1;P1;durP2;ratioP2;P2;SDS_P1;SDS_P2;PMS_P1;PMS_P2;Temp;Humidity;BMP_temperature;BMP_pressure;BME280_temperature;BME280_humidity;BME280_pressure;Samples;Min_cycle;Max_cycle;Signal;HPM_P1;HPM_P2
2021/06/14 00:01:05;;;;;;;15.70;9.20;;;;;;;14.79;83.62;100810.08;1914383;75;21477;-63
2021/06/14 00:03:32;;;;;;;14.53;8.38;;;;;;;14.75;83.77;100808.99;1914427;75;21454;-63
2021/06/14 00:06:00;;;;;;;13.98;9.33;;;;;;;14.71;83.60;100809.63;1914403;75;21554;-63
2021/06/14 00:08:28;;;;;;;14.50;9.43;;;;;;;14.67;83.58;100800.98;1914327;75;21493;-64
2021/06/14 00:10:58;;;;;;;16.48;9.85;;;;;;;14.65;83.66;100802.87;1914243;75;21451;-63
2021/06/14 00:13:28;;;;;;;15.70;9.33;;;;;;;14.64;84.06;100806.93;1914268;75;21019;-62
2021/06/14 00:15:56;;;;;;;15.75;9.30;;;;;;;14.62;84.00;100809.66;1914238;74;22399;-62
2021/06/14 00:18:24;;;;;;;14.43;9.23;;;;;;;14.64;83.87;100809.58;1914315;75;21564;-62
2021/06/14 00:21:00;;;;;;;14.30;9.05;;;;;;;14.62;83.58;100800.38;1914312;75;21097;-63
2021/06/14 00:23:30;;;;;;;15.53;9.78;;;;;;;14.57;83.38;100801.12;1914333;75;21070;-62
2021/06/14 00:25:59;;;;;;;15.63;10.20;;;;;;;14.53;83.50;100803.98;1914414;75;21349;-62
2021/06/14 00:28:28;;;;;;;20.10;11.88;;;;;;;14.51;83.31;100806.71;1914332;75;21152;-62
2021/06/14 00:30:56;;;;;;;16.75;10.13;;;;;;;14.50;83.30;100808.99;1914331;75;21470;-62
2021/06/14 00:33:24;;;;;;;18.70;10.25;;;;;;;14.46;83.28;100810.95;1914288;75;21462;-62
2021/06/14 00:35:53;;;;;;;14.80;9.35;;;;;;;14.38;83.45;100810.49;1914317;75;21022;-64
2021/06/14 00:38:21;;;;;;;13.53;9.53;;;;;;;14.29;83.56;100812.31;1914312;75;20995;-62
2021/06/14 00:40:49;;;;;;;13.60;8.65;;;;;;;14.22;83.46;100813.13;1914101;75;21505;-62
2021/06/14 00:43:18;;;;;;;19.90;10.03;;;;;;;14.21;83.41;100806.58;1914459;75;21038;-62
2021/06/14 00:45:48;;;;;;;17.30;9.95;;;;;;;14.16;83.68;100806.81;1914317;75;20992;-62
2021/06/14 00:48:17;;;;;;;15.38;9.60;;;;;;;14.14;83.52;100807.36;1914387;75;21031;-65
2021/06/14 00:50:50;;;;;;;16.87;10.90;;;;;;;14.10;83.55;100806.66;1914306;75;21039;-65
2021/06/14 00:53:36;;;;;;;25.85;15.13;;;;;;;14.06;84.04;100809.57;1913462;74;21147;-62
2021/06/14 00:56:12;;;;;;;30.52;19.65;;;;;;;14.02;84.31;100808.03;1914315;75;21011;-62
2021/06/14 00:58:41;;;;;;;20.82;11.55;;;;;;;13.99;84.36;100806.85;1913900;75;21051;-62
2021/06/14 01:01:10;;;;;;;15.28;9.25;;;;;;;13.99;84.34;100802.87;1914352;75;21482;-62
2021/06/14 01:03:38;;;;;;;14.13;9.35;;;;;;;13.98;84.37;100811.75;1914200;75;21023;-67
2021/06/14 01:06:08;;;;;;;16.85;9.55;;;;;;;13.94;84.37;100817.66;1914555;75;21391;-63
2021/06/14 01:08:39;;;;;;;15.90;10.93;;;;;;;13.89;84.33;100814.42;1914268;75;21027;-66
2021/06/14 01:11:15;;;;;;;17.85;11.25;;;;;;;13.86;84.34;100819.39;1914429;75;21108;-66
2021/06/14 01:14:00;;;;;;;30.08;21.17;;;;;;;13.84;84.75;100822.59;1914245;73;21128;-65
2021/06/14 01:16:48;;;;;;;16.70;10.30;;;;;;;13.85;84.41;100820.79;1898545;75;21082;-63
2021/06/14 01:19:38;;;;;;;13.55;7.83;;;;;;;13.81;84.29;100825.86;1914292;75;21482;-63
2021/06/14 01:22:23;;;;;;;12.33;8.33;;;;;;;13.74;84.30;100825.78;1914334;75;21031;-63
2021/06/14 01:25:09;;;;;;;14.13;8.78;;;;;;;13.67;84.10;100819.48;1913361;74;21113;-63
2021/06/14 01:27:56;;;;;;;13.10;8.78;;;;;;;13.65;84.19;100825.80;1882047;76;21039;-63
2021/06/14 01:30:27;;;;;;;13.55;7.58;;;;;;;13.60;84.12;100825.17;1951065;73;21046;-63
2021/06/14 01:32:55;;;;;;;12.25;7.97;;;;;;;13.58;84.00;100832.33;1952097;73;20992;-64
2021/06/14 01:35:26;;;;;;;14.40;8.50;;;;;;;13.56;84.03;100824.94;1952128;73;21465;-64
2021/06/14 01:37:57;;;;;;;17.57;9.18;;;;;;;13.55;84.27;100833.80;1933615;73;21141;-64
2021/06/14 01:40:26;;;;;;;14.25;9.80;;;;;;;13.55;84.44;100827.19;1952386;73;21039;-64
2021/06/14 01:42:57;;;;;;;18.12;10.15;;;;;;;13.53;84.49;100834.34;1952167;73;21026;-64
2021/06/14 01:45:27;;;;;;;13.20;8.80;;;;;;;13.49;84.43;100826.55;1952319;73;20999;-64
2021/06/14 01:47:57;;;;;;;18.27;12.15;;;;;;;13.46;84.37;100830.69;1952224;73;21026;-63
2021/06/14 01:50:29;;;;;;;18.07;11.70;;;;;;;13.43;84.39;100824.22;1952254;73;20997;-63
2021/06/14 01:52:59;;;;;;;15.48;11.60;;;;;;;13.41;84.69;100831.38;1952037;73;21363;-64
2021/06/14 01:55:28;;;;;;;15.05;11.15;;;;;;;13.43;84.64;100838.77;1952171;73;21100;-64
2021/06/14 01:57:57;;;;;;;15.48;12.43;;;;;;;13.46;84.60;100833.78;1952101;73;21055;-64
2021/06/14 02:00:26;;;;;;;15.48;11.53;;;;;;;13.47;84.57;100831.06;1952318;73;21563;-63
2021/06/14 02:02:55;;;;;;;16.15;11.53;;;;;;;13.48;84.68;100823.53;1952191;73;21018;-64
2021/06/14 02:05:25;;;;;;;15.63;11.08;;;;;;;13.49;84.98;100830.52;1952226;73;21022;-64
2021/06/14 02:07:55;;;;;;;14.00;9.78;;;;;;;13.50;85.00;100823.42;1952330;73;21022;-64
2021/06/14 02:10:25;;;;;;;16.48;9.30;;;;;;;13.51;84.83;100820.71;1952075;73;21018;-64
2021/06/14 02:12:54;;;;;;;17.25;9.10;;;;;;;13.51;84.63;100823.83;1951313;73;21062;-63
2021/06/14 02:15:23;;;;;;;14.70;8.88;;;;;;;13.50;84.55;100820.34;1949879;73;21021;-62
2021/06/14 02:17:53;;;;;;;15.68;9.43;;;;;;;13.50;84.48;100824.75;1949900;73;21024;-62
2021/06/14 02:20:21;;;;;;;15.85;8.80;;;;;;;13.54;84.46;100826.33;1949886;73;21196;-63
2021/06/14 02:22:49;;;;;;;11.40;8.20;;;;;;;13.69;84.65;100830.00;1949944;73;21155;-64
2021/06/14 02:25:17;;;;;;;14.85;8.48;;;;;;;13.85;84.77;100830.93;1949980;73;21481;-63
2021/06/14 02:27:45;;;;;;;13.03;7.95;;;;;;;14.05;84.92;100833.87;1949797;73;21498;-63
2021/06/14 02:30:16;;;;;;;15.13;8.33;;;;;;;14.25;85.10;100825.34;1949867;73;21519;-62
2021/06/14 02:32:44;;;;;;;11.18;7.33;;;;;;;14.42;85.11;100829.73;1949948;73;21015;-63
2021/06/14 02:35:13;;;;;;;15.65;7.80;;;;;;;14.56;84.92;100829.84;1949846;73;21043;-63
2021/06/14 02:37:47;;;;;;;13.40;8.55;;;;;;;14.75;84.59;100831.04;1949754;73;21183;-63
2021/06/14 02:40:16;;;;;;;12.20;8.50;;;;;;;14.96;84.23;100827.69;1949848;73;21097;-63
2021/06/14 02:42:45;;;;;;;13.95;8.58;;;;;;;15.17;83.61;100834.05;1949877;73;21106;-62
2021/06/14 02:45:14;;;;;;;10.82;7.67;;;;;;;15.36;82.85;100841.80;1949899;73;21096;-63
2021/06/14 02:47:43;;;;;;;12.13;7.20;;;;;;;15.41;81.27;100851.20;1949969;73;21022;-63
2021/06/14 02:50:13;;;;;;;12.30;7.47;;;;;;;15.22;80.40;100857.19;1950010;73;21118;-63
2021/06/14 02:52:42;;;;;;;14.10;7.97;;;;;;;14.95;80.08;100859.11;1950065;73;21023;-62
2021/06/14 02:55:13;;;;;;;12.98;8.38;;;;;;;14.71;80.27;100856.48;1949910;73;21097;-63
2021/06/14 02:57:44;;;;;;;16.75;9.25;;;;;;;14.53;80.67;100858.30;1950105;73;21153;-63
2021/06/14 03:00:14;;;;;;;13.95;8.40;;;;;;;14.40;80.99;100860.75;1949480;73;21160;-63
2021/06/14 03:02:42;;;;;;;13.03;8.55;;;;;;;14.29;81.23;100854.24;1949868;73;21105;-63
2021/06/14 03:05:11;;;;;;;14.70;8.90;;;;;;;14.23;81.38;100856.34;1949938;73;21439;-63
2021/06/14 03:07:39;;;;;;;16.48;9.85;;;;;;;14.20;81.36;100857.81;1950050;73;21083;-63
2021/06/14 03:10:09;;;;;;;16.17;10.60;;;;;;;14.18;81.32;100853.92;1949954;73;21474;-63
2021/06/14 03:12:37;;;;;;;18.77;9.73;;;;;;;14.13;81.87;100853.33;1949765;73;21000;-63
2021/06/14 03:15:07;;;;;;;17.80;9.93;;;;;;;14.10;81.86;100852.16;1949806;73;21096;-63
2021/06/14 03:17:36;;;;;;;21.02;16.57;;;;;;;14.15;82.08;100853.25;1949974;73;21092;-63
2021/06/14 03:20:06;;;;;;;18.60;15.32;;;;;;;14.25;82.02;100855.31;1949927;73;21026;-62
2021/06/14 03:22:34;;;;;;;16.15;12.82;;;;;;;14.37;81.98;100852.98;1949933;73;21025;-63
2021/06/14 03:25:03;;;;;;;14.53;10.23;;;;;;;14.61;82.10;100845.55;1949994;73;21563;-63
2021/06/14 03:27:32;;;;;;;11.08;8.25;;;;;;;14.96;82.76;100852.88;1949939;73;21027;-63
2021/06/14 03:30:00;;;;;;;13.95;7.08;;;;;;;15.14;82.46;100846.14;1949935;73;21070;-63
2021/06/14 03:32:29;;;;;;;12.30;7.37;;;;;;;15.28;82.02;100852.86;1950073;73;21043;-62
2021/06/14 03:34:57;;;;;;;10.75;6.42;;;;;;;15.37;81.56;100853.66;1949939;73;21027;-62
2021/06/14 03:37:26;;;;;;;15.78;6.67;;;;;;;15.50;81.25;100851.15;1949999;73;21019;-62
2021/06/14 03:39:54;;;;;;;13.08;6.60;;;;;;;15.79;81.52;100845.50;1949879;73;21059;-63
2021/06/14 03:42:24;;;;;;;8.35;6.25;;;;;;;16.14;81.64;100839.88;1949932;73;21572;-62
2021/06/14 03:44:51;;;;;;;9.43;6.45;;;;;;;16.44;80.80;100848.72;1949819;73;21076;-62
2021/06/14 03:47:19;;;;;;;17.27;8.00;;;;;;;16.71;80.52;100844.80;1950045;73;21766;-62
2021/06/14 03:49:47;;;;;;;11.68;7.53;;;;;;;16.97;80.21;100840.53;1950031;73;21492;-62
2021/06/14 03:52:14;;;;;;;11.40;7.10;;;;;;;17.27;79.95;100839.00;1950081;73;21427;-62
2021/06/14 03:54:42;;;;;;;10.28;6.50;;;;;;;17.53;79.13;100833.77;1949832;73;21469;-62
2021/06/14 03:57:10;;;;;;;9.78;5.92;;;;;;;17.71;78.53;100827.69;1950033;73;21497;-62
2021/06/14 03:59:38;;;;;;;9.98;6.35;;;;;;;17.89;77.75;100825.14;1950023;73;21458;-62
2021/06/14 04:02:06;;;;;;;7.53;4.80;;;;;;;18.16;77.23;100833.50;1950085;73;21469;-62
2021/06/14 04:04:50;;;;;;;4.20;3.75;;;;;;;18.38;76.90;100834.19;1950066;73;21555;-62
2021/06/14 04:07:15;;;;;;;6.53;5.08;;;;;;;18.60;76.61;100830.02;1949150;73;21052;-62
2021/06/14 04:09:43;;;;;;;12.23;4.80;;;;;;;18.80;76.22;100826.77;1950035;73;21489;-62
2021/06/14 04:12:12;;;;;;;10.68;5.10;;;;;;;19.03;75.67;100836.27;1950057;73;21469;-62
2021/06/14 04:14:42;;;;;;;8.50;4.90;;;;;;;19.24;74.85;100833.36;1925342;73;21183;-62
2021/06/14 04:17:10;;;;;;;8.00;4.95;;;;;;;19.50;74.13;100829.23;1908744;74;21071;-62
2021/06/14 04:19:38;;;;;;;18.23;5.67;;;;;;;19.78;73.37;100826.68;1908546;75;21023;-63
2021/06/14 04:22:07;;;;;;;9.80;4.67;;;;;;;20.13;72.86;100826.27;1908801;75;21016;-61
2021/06/14 04:24:34;;;;;;;8.45;4.67;;;;;;;20.54;72.42;100820.31;1908634;75;21027;-62
2021/06/14 04:27:02;;;;;;;7.97;4.62;;;;;;;20.91;71.56;100821.89;1908707;75;21004;-62
2021/06/14 04:29:30;;;;;;;11.12;4.85;;;;;;;21.25;70.79;100819.11;1908624;75;21541;-62
2021/06/14 04:31:58;;;;;;;9.10;4.83;;;;;;;21.53;69.24;100815.03;1908728;75;21478;-62
2021/06/14 04:34:27;;;;;;;8.10;4.85;;;;;;;21.78;68.46;100816.45;1908504;75;21094;-62
2021/06/14 04:36:56;;;;;;;11.83;4.60;;;;;;;22.11;67.87;100820.78;1908644;74;21501;-62
2021/06/14 04:39:24;;;;;;;15.13;7.53;;;;;;;22.38;66.76;100825.24;1857100;77;21075;-62
2021/06/14 04:41:51;;;;;;;10.60;6.17;;;;;;;22.53;65.65;100813.99;1936842;74;21482;-62
2021/06/14 04:44:19;;;;;;;11.90;4.25;;;;;;;22.69;64.34;100818.86;1936166;74;21094;-66
2021/06/14 04:46:47;;;;;;;12.53;4.85;;;;;;;22.74;63.61;100817.09;1936687;74;21125;-64
2021/06/14 04:49:15;;;;;;;9.03;4.25;;;;;;;22.83;62.98;100814.08;1936905;74;21027;-61
2021/06/14 04:51:43;;;;;;;8.35;4.08;;;;;;;22.86;62.10;100809.79;1936824;74;21559;-62
2021/06/14 04:54:10;;;;;;;12.10;6.15;;;;;;;22.97;62.09;100808.33;1936809;74;21509;-61
2021/06/14 04:56:38;;;;;;;9.75;4.83;;;;;;;23.12;61.92;100806.95;1936835;74;21447;-62
2021/06/14 04:59:06;;;;;;;10.88;4.62;;;;;;;23.26;61.33;100811.58;1936867;74;21465;-62
2021/06/14 05:01:33;;;;;;;10.95;4.95;;;;;;;23.38;60.96;100815.80;1936694;74;21055;-62
2021/06/14 05:04:01;;;;;;;10.90;5.12;;;;;;;23.50;60.87;100812.00;1936908;74;21486;-61
2021/06/14 05:06:30;;;;;;;7.92;4.60;;;;;;;23.64;60.63;100806.66;1936885;74;21463;-63
2021/06/14 05:08:58;;;;;;;8.98;4.17;;;;;;;23.83;60.04;100809.87;1936871;74;21051;-63
2021/06/14 05:11:26;;;;;;;8.63;4.28;;;;;;;23.95;59.33;100802.98;1936836;74;21469;-63
2021/06/14 05:13:54;;;;;;;7.28;4.28;;;;;;;24.10;59.22;100800.16;1936699;73;21023;-64
2021/06/14 05:16:22;;;;;;;5.08;2.92;;;;;;;24.31;58.71;100809.38;1936809;74;21079;-63
2021/06/14 05:18:49;;;;;;;9.98;4.15;;;;;;;24.44;57.71;100799.13;1936845;74;21043;-63
2021/06/14 05:21:17;;;;;;;4.67;3.27;;;;;;;24.59;57.62;100810.27;1936883;74;21035;-63
2021/06/14 05:23:45;;;;;;;8.30;3.87;;;;;;;24.70;56.93;100802.97;1936902;74;21544;-62
2021/06/14 05:26:12;;;;;;;6.40;3.65;;;;;;;24.89;56.40;100811.45;1936898;74;21439;-64
2021/06/14 05:28:40;;;;;;;8.50;4.30;;;;;;;25.11;56.26;100811.52;1936918;74;21556;-63
2021/06/14 05:31:08;;;;;;;7.70;4.17;;;;;;;25.24;56.10;100813.36;1936837;74;21486;-63
2021/06/14 05:33:36;;;;;;;9.23;4.00;;;;;;;25.39;55.20;100814.50;1936764;74;20988;-63
2021/06/14 05:36:05;;;;;;;5.70;3.90;;;;;;;25.43;54.73;100811.87;1936604;74;21540;-63
2021/06/14 05:38:32;;;;;;;5.08;3.27;;;;;;;25.65;54.89;100808.31;1936801;74;21020;-63
2021/06/14 05:41:00;;;;;;;7.40;3.85;;;;;;;25.78;54.21;100810.13;1937011;74;21549;-63
2021/06/14 05:43:28;;;;;;;6.58;3.70;;;;;;;25.90;53.82;100807.16;1936808;74;21467;-62
2021/06/14 05:45:56;;;;;;;5.53;3.55;;;;;;;26.11;53.30;100805.46;1936721;74;21579;-63
2021/06/14 05:48:24;;;;;;;4.95;3.55;;;;;;;26.16;52.93;100808.02;1936841;74;21506;-63
2021/06/14 05:50:53;;;;;;;3.37;2.85;;;;;;;26.37;53.01;100798.67;1936814;74;21540;-62
2021/06/14 05:53:21;;;;;;;4.20;2.75;;;;;;;26.51;52.03;100799.94;1936734;74;21506;-63
2021/06/14 05:55:49;;;;;;;5.03;2.30;;;;;;;26.56;50.85;100798.44;1936869;74;21015;-63
2021/06/14 05:58:17;;;;;;;5.35;2.50;;;;;;;26.58;50.69;100803.16;1936804;74;21028;-63
2021/06/14 06:00:46;;;;;;;3.45;2.77;;;;;;;26.57;50.24;100798.76;1936809;74;21096;-63
2021/06/14 06:03:13;;;;;;;5.47;2.77;;;;;;;26.77;50.51;100793.13;1936828;74;21050;-63
2021/06/14 06:05:41;;;;;;;3.70;2.52;;;;;;;27.07;50.63;100797.58;1936933;74;21458;-63
2021/06/14 06:08:09;;;;;;;3.10;2.80;;;;;;;27.27;49.97;100793.58;1936648;74;21486;-63
2021/06/14 06:10:37;;;;;;;4.53;3.02;;;;;;;27.36;49.44;100790.90;1936799;74;21027;-63
2021/06/14 06:13:05;;;;;;;5.75;3.25;;;;;;;27.16;49.60;100785.25;1936784;74;21051;-63
2021/06/14 06:15:33;;;;;;;3.55;2.90;;;;;;;26.73;49.83;100783.67;1947031;73;21148;-63
2021/06/14 06:18:01;;;;;;;5.22;3.10;;;;;;;26.28;50.23;100782.10;1959078;73;21632;-63
2021/06/14 06:20:29;;;;;;;6.47;2.85;;;;;;;26.16;50.95;100778.85;1958974;73;21522;-64
2021/06/14 06:22:56;;;;;;;4.17;2.33;;;;;;;26.39;50.93;100783.16;1959059;73;21454;-64
2021/06/14 06:25:26;;;;;;;4.37;2.85;;;;;;;26.70;50.28;100782.64;1959180;73;21534;-64
2021/06/14 06:27:54;;;;;;;3.40;2.62;;;;;;;26.51;50.07;100789.13;1959049;73;21054;-64
2021/06/14 06:30:28;;;;;;;4.42;2.70;;;;;;;26.29;50.24;100782.45;1959126;73;21531;-63
2021/06/14 06:32:56;;;;;;;7.53;4.28;;;;;;;26.25;50.39;100777.05;1958495;73;21583;-61
2021/06/14 06:35:24;;;;;;;4.97;3.80;;;;;;;25.82;50.80;100774.22;1959022;73;21600;-63
2021/06/14 06:37:52;;;;;;;6.53;3.52;;;;;;;25.99;51.39;100773.88;1959116;73;21477;-61
2021/06/14 06:40:20;;;;;;;4.55;2.62;;;;;;;26.22;51.60;100772.80;1959069;73;21477;-62
2021/06/14 06:42:48;;;;;;;6.80;3.12;;;;;;;26.30;51.58;100768.80;1959087;73;21478;-61
2021/06/14 06:45:17;;;;;;;8.58;3.47;;;;;;;26.17;51.05;100767.91;1959192;73;21547;-61
2021/06/14 06:47:45;;;;;;;6.78;3.40;;;;;;;26.67;51.62;100765.41;1958921;73;21084;-62
2021/06/14 06:50:13;;;;;;;4.65;2.95;;;;;;;26.80;50.92;100769.85;1959053;73;21062;-62
2021/06/14 06:52:41;;;;;;;5.22;2.98;;;;;;;26.62;50.89;100767.27;1959078;73;21114;-61
2021/06/14 06:55:11;;;;;;;4.35;3.17;;;;;;;26.70;51.04;100767.27;1959060;73;21083;-62
2021/06/14 06:57:40;;;;;;;6.30;3.52;;;;;;;27.10;51.21;100764.83;1959021;73;21104;-62
2021/06/14 07:00:11;;;;;;;4.58;3.02;;;;;;;27.66;50.04;100763.66;1958968;73;21096;-61
2021/06/14 07:02:38;;;;;;;9.80;4.97;;;;;;;27.83;49.18;100761.77;1958908;73;21026;-64
2021/06/14 07:05:07;;;;;;;3.90;3.10;;;;;;;27.69;49.39;100761.46;1959204;73;21026;-66
2021/06/14 07:07:35;;;;;;;8.78;2.40;;;;;;;27.96;48.52;100759.42;1959171;73;21018;-65
2021/06/14 07:10:05;;;;;;;6.87;4.05;;;;;;;28.10;48.67;100764.61;1958999;73;21046;-65
2021/06/14 07:12:34;;;;;;;6.40;3.35;;;;;;;28.42;47.76;100772.27;1930531;73;21024;-64
2021/06/14 07:15:02;;;;;;;8.08;3.90;;;;;;;28.60;46.99;100776.11;1924776;74;21106;-64
2021/06/14 07:17:30;;;;;;;10.65;4.60;;;;;;;28.16;47.19;100775.25;1924668;74;21567;-61
2021/06/14 07:19:58;;;;;;;6.90;3.30;;;;;;;27.51;48.06;100769.75;1925033;74;21524;-62
2021/06/14 07:22:25;;;;;;;6.70;3.60;;;;;;;27.21;48.84;100771.26;1924882;74;21534;-62
2021/06/14 07:24:53;;;;;;;6.05;3.15;;;;;;;27.39;49.33;100770.27;1924793;74;21427;-62
2021/06/14 07:27:21;;;;;;;6.45;3.50;;;;;;;27.67;49.59;100766.20;1924695;74;21146;-61
2021/06/14 07:29:49;;;;;;;11.93;4.53;;;;;;;27.68;48.95;100766.52;1924753;74;21498;-62
2021/06/14 07:32:17;;;;;;;7.87;4.20;;;;;;;27.71;49.05;100762.13;1924886;74;21503;-62
2021/06/14 07:34:44;;;;;;;9.70;3.40;;;;;;;28.23;49.07;100768.13;1924878;74;21544;-62
2021/06/14 07:37:12;;;;;;;6.28;3.27;;;;;;;28.70;48.45;100759.14;1925042;74;21161;-62
2021/06/14 07:39:40;;;;;;;4.12;2.95;;;;;;;29.17;47.50;100761.39;1924802;74;21055;-62
2021/06/14 07:42:08;;;;;;;10.25;3.60;;;;;;;29.36;46.05;100755.45;1924940;74;21122;-62
2021/06/14 07:44:36;;;;;;;9.85;3.35;;;;;;;29.74;45.17;100756.00;1924854;74;21040;-62
2021/06/14 07:47:05;;;;;;;7.22;3.58;;;;;;;29.77;45.45;100755.60;1924851;74;21044;-61
2021/06/14 07:49:34;;;;;;;6.62;3.72;;;;;;;30.07;44.30;100756.48;1924440;74;21501;-60
2021/06/14 07:52:02;;;;;;;5.20;3.40;;;;;;;30.20;44.34;100755.81;1924735;74;21111;-65
2021/06/14 07:54:30;;;;;;;5.92;3.02;;;;;;;30.64;43.71;100752.74;1924880;74;21056;-64
2021/06/14 07:56:58;;;;;;;4.65;2.85;;;;;;;30.85;43.10;100751.91;1924936;74;21514;-64
2021/06/14 07:59:26;;;;;;;4.65;2.52;;;;;;;30.82;42.18;100750.44;1924875;74;21482;-62
2021/06/14 08:01:54;;;;;;;4.87;3.02;;;;;;;30.68;42.14;100754.03;1924799;74;21498;-68
2021/06/14 08:04:22;;;;;;;4.03;3.02;;;;;;;30.52;42.25;100749.14;1925001;74;21598;-67
2021/06/14 08:06:49;;;;;;;3.67;2.25;;;;;;;30.59;42.33;100744.63;1924836;74;21550;-66
2021/06/14 08:09:24;;;;;;;5.35;3.20;;;;;;;30.55;42.12;100749.29;1924964;74;21486;-64
2021/06/14 08:11:46;;;;;;;3.83;2.58;;;;;;;29.88;42.80;100746.16;1923838;74;21060;-62
2021/06/14 08:14:14;;;;;;;6.60;3.72;;;;;;;29.63;43.40;100736.38;1924889;74;21103;-62
2021/06/14 08:16:43;;;;;;;6.97;3.45;;;;;;;29.10;43.95;100739.53;1924781;74;21131;-62
2021/06/14 08:19:57;;;;;;;7.47;3.05;;;;;;;29.24;44.18;100746.92;1924952;74;21368;-62
2021/06/14 08:22:09;;;;;;;7.78;3.55;;;;;;;28.88;44.39;100738.02;1899104;74;21056;-62
2021/06/14 08:27:04;;;;;;;7.40;2.92;;;;;;;28.89;45.19;100725.31;1924840;74;21071;-63
2021/06/14 08:29:32;;;;;;;3.30;2.58;;;;;;;29.41;44.17;100734.58;1924857;74;21044;-64
2021/06/14 08:32:00;;;;;;;3.55;2.55;;;;;;;29.78;43.44;100736.95;1924858;74;21039;-63
2021/06/14 08:34:28;;;;;;;3.70;2.70;;;;;;;29.98;42.83;100735.88;1924876;74;21471;-63
2021/06/14 08:36:55;;;;;;;3.27;2.65;;;;;;;30.22;42.93;100736.94;1924863;74;21133;-62
2021/06/14 08:39:23;;;;;;;3.95;3.05;;;;;;;30.61;42.98;100730.85;1924973;74;21013;-62
2021/06/14 08:41:51;;;;;;;6.97;3.98;;;;;;;30.88;41.86;100731.98;1924802;74;21541;-62
2021/06/14 08:44:20;;;;;;;10.50;3.85;;;;;;;31.07;41.94;100733.23;1924855;74;21447;-63
2021/06/14 08:46:53;;;;;;;8.60;3.47;;;;;;;31.26;41.18;100733.61;1924873;74;21118;-62
2021/06/14 08:49:21;;;;;;;4.05;2.95;;;;;;;30.88;41.73;100730.62;1924923;74;21041;-62
2021/06/14 08:51:49;;;;;;;6.92;3.42;;;;;;;30.43;42.43;100730.43;1924880;74;21032;-63
2021/06/14 08:54:17;;;;;;;6.08;3.12;;;;;;;30.25;42.41;100728.95;1924933;74;21161;-62
2021/06/14 08:56:45;;;;;;;4.15;3.27;;;;;;;29.98;43.23;100726.39;1924700;74;21455;-63
2021/06/14 08:59:12;;;;;;;4.72;2.80;;;;;;;30.19;43.50;100727.83;1924864;74;21097;-63
2021/06/14 09:01:40;;;;;;;5.25;3.30;;;;;;;30.02;43.27;100727.69;1924939;74;21538;-62
2021/06/14 09:04:08;;;;;;;5.75;3.22;;;;;;;29.74;43.91;100727.50;1924799;74;21504;-67
2021/06/14 09:06:36;;;;;;;5.95;3.20;;;;;;;29.57;44.14;100729.00;1924388;74;21478;-63
2021/06/14 09:09:09;;;;;;;4.28;3.33;;;;;;;29.54;44.41;100730.71;1924843;74;21490;-63
2021/06/14 09:11:39;;;;;;;5.60;3.45;;;;;;;29.25;44.71;100731.48;1924826;74;21095;-62
2021/06/14 09:14:19;;;;;;;5.78;3.60;;;;;;;29.39;45.24;100725.78;1924881;74;21141;-62
2021/06/14 09:16:47;;;;;;;6.30;3.40;;;;;;;29.61;44.64;100730.30;1925674;73;21083;-63
2021/06/14 09:19:33;;;;;;;8.20;3.17;;;;;;;29.17;44.49;100734.28;1928383;74;21482;-63
2021/06/14 09:22:23;;;;;;;6.70;3.25;;;;;;;29.02;45.11;100735.55;1928376;74;21091;-62
2021/06/14 09:25:06;;;;;;;3.40;2.50;;;;;;;28.76;45.11;100747.58;1925993;74;21093;-63
2021/06/14 09:27:48;;;;;;;11.65;3.92;;;;;;;28.49;45.52;100743.46;1928371;74;21110;-62
2021/06/14 09:30:22;;;;;;;9.05;4.10;;;;;;;28.36;46.24;100751.31;1927706;74;21086;-63
2021/06/14 09:32:55;;;;;;;5.50;3.30;;;;;;;28.71;46.47;100746.43;1928348;74;21459;-63
2021/06/14 09:35:24;;;;;;;5.08;3.17;;;;;;;28.70;45.75;100748.30;1926895;74;21117;-63
2021/06/14 09:38:06;;;;;;;4.95;4.05;;;;;;;28.85;45.44;100753.28;1928337;74;21619;-63
2021/06/14 09:40:40;;;;;;;6.70;3.70;;;;;;;28.75;45.21;100754.01;1928353;74;21028;-63
2021/06/14 09:43:11;;;;;;;5.92;3.35;;;;;;;28.85;45.52;100747.86;1927190;74;21004;-63
2021/06/14 09:45:43;;;;;;;6.28;3.33;;;;;;;29.11;45.29;100748.02;1928278;74;21028;-63
2021/06/14 09:48:22;;;;;;;4.05;2.95;;;;;;;29.15;44.83;100743.95;1928378;74;21154;-63
2021/06/14 09:50:52;;;;;;;4.35;3.67;;;;;;;29.01;44.96;100735.20;1927271;74;21521;-64
2021/06/14 09:53:23;;;;;;;7.25;3.72;;;;;;;28.93;45.02;100750.19;1928348;74;21032;-63
2021/06/14 09:55:54;;;;;;;5.60;3.17;;;;;;;29.18;45.19;100746.79;1928337;74;21031;-63
2021/06/14 09:58:24;;;;;;;4.90;3.15;;;;;;;29.35;45.04;100749.71;1926890;74;21012;-63
2021/06/14 10:00:57;;;;;;;10.18;3.60;;;;;;;29.28;44.71;100742.50;1927453;74;21043;-63
2021/06/14 10:03:27;;;;;;;12.90;4.53;;;;;;;29.04;44.85;100744.34;1928228;74;21043;-65
2021/06/14 10:05:57;;;;;;;5.22;3.17;;;;;;;28.87;45.26;100747.16;1927728;73;21067;-63
2021/06/14 10:08:31;;;;;;;5.97;3.55;;;;;;;29.19;45.35;100746.61;1928452;74;21061;-63
2021/06/14 10:11:11;;;;;;;3.90;3.00;;;;;;;29.49;44.89;100740.43;1928222;74;21552;-63
2021/06/14 10:13:44;;;;;;;5.08;3.25;;;;;;;29.76;43.76;100740.37;1927582;74;21564;-62
2021/06/14 10:16:14;;;;;;;7.17;3.00;;;;;;;29.95;43.76;100728.94;1928277;74;21110;-63
2021/06/14 10:18:57;;;;;;;7.87;3.55;;;;;;;29.90;43.82;100734.11;1928433;74;21103;-63
2021/06/14 10:21:32;;;;;;;8.65;3.90;;;;;;;30.06;44.31;100734.94;1928249;74;21552;-63
2021/06/14 10:24:00;;;;;;;6.37;3.72;;;;;;;30.18;44.23;100733.45;1926645;73;21491;-63
2021/06/14 10:26:30;;;;;;;7.58;2.77;;;;;;;30.22;43.94;100729.31;1926804;74;21030;-63
2021/06/14 10:28:58;;;;;;;5.72;2.45;;;;;;;29.94;43.22;100723.73;1928323;74;21559;-63
2021/06/14 10:31:26;;;;;;;9.88;3.65;;;;;;;29.85;43.24;100720.78;1928314;74;21122;-63
2021/06/14 10:33:58;;;;;;;7.30;3.33;;;;;;;29.90;43.24;100717.83;1928453;74;21071;-62
2021/06/14 10:36:27;;;;;;;3.95;3.17;;;;;;;29.92;43.25;100714.94;1927970;74;21079;-63
2021/06/14 10:38:57;;;;;;;4.75;2.87;;;;;;;30.07;43.38;100717.64;1928180;74;21024;-63
2021/06/14 10:41:26;;;;;;;6.20;2.60;;;;;;;29.95;43.36;100715.37;1928323;74;21031;-62
2021/06/14 10:43:55;;;;;;;3.42;2.77;;;;;;;29.81;43.84;100708.09;1928328;74;21548;-63
2021/06/14 10:46:25;;;;;;;5.28;2.87;;;;;;;29.77;44.09;100701.33;1928321;74;21114;-63
2021/06/14 10:49:00;;;;;;;3.55;2.92;;;;;;;29.60;43.37;100698.80;1928117;74;21035;-62
2021/06/14 10:51:35;;;;;;;5.47;2.83;;;;;;;29.41;43.48;100695.25;1927915;74;21175;-63
2021/06/14 10:54:07;;;;;;;4.95;2.83;;;;;;;29.30;43.96;100686.20;1926662;74;21089;-63
2021/06/14 10:56:36;;;;;;;4.33;3.15;;;;;;;29.23;44.16;100689.67;1928348;74;21097;-63
2021/06/14 10:59:14;;;;;;;5.85;3.20;;;;;;;29.14;44.69;100687.19;1928437;74;21036;-63
2021/06/14 11:01:46;;;;;;;6.05;3.25;;;;;;;29.18;45.05;100681.23;1928052;74;21092;-63
2021/06/14 11:04:29;;;;;;;3.33;2.55;;;;;;;29.22;45.25;100673.05;1928490;74;21060;-62
2021/06/14 11:06:59;;;;;;;4.40;2.85;;;;;;;29.25;44.57;100677.25;1928662;74;21088;-63
2021/06/14 11:09:42;;;;;;;7.25;3.05;;;;;;;29.31;44.50;100666.19;1928513;74;21113;-63
2021/06/14 11:12:12;;;;;;;10.35;2.80;;;;;;;29.42;44.18;100665.76;1897158;74;21125;-64
2021/06/14 11:14:45;;;;;;;4.87;2.50;;;;;;;29.37;43.92;100665.47;1928472;74;21032;-63
2021/06/14 11:17:25;;;;;;;4.80;2.55;;;;;;;29.39;43.84;100664.77;1928259;74;21071;-63
2021/06/14 11:20:05;;;;;;;5.17;2.60;;;;;;;29.34;43.39;100653.09;1924934;74;21083;-64
2021/06/14 11:22:44;;;;;;;3.92;2.65;;;;;;;29.23;43.47;100649.00;1924837;74;21060;-63
2021/06/14 11:25:33;;;;;;;2.65;2.45;;;;;;;28.80;44.06;100644.58;1924940;74;21052;-63
2021/06/14 11:28:05;;;;;;;4.22;2.70;;;;;;;28.45;45.22;100656.31;1923077;74;21061;-63
2021/06/14 11:30:36;;;;;;;7.28;2.72;;;;;;;28.17;45.28;100649.73;1924953;74;21075;-63
2021/06/14 11:33:05;;;;;;;2.90;2.30;;;;;;;28.15;45.22;100646.36;1924901;74;21117;-63
2021/06/14 11:35:34;;;;;;;8.88;2.58;;;;;;;28.24;45.11;100635.81;1924912;74;21087;-64
2021/06/14 11:38:04;;;;;;;6.25;2.20;;;;;;;28.34;45.32;100629.64;1924889;74;21500;-64